Time;durP1;ratioP1;P1;durP2;ratioP2;P2;SDS_P1;SDS_P2;PMS_P1;PMS_P2;Temp;Humidity;BMP_temperature;BMP_pressure;BME280_temperature;BME280_humidity;BME280_pressure;Samples;Min_cycle;Max_cycle;Signal;HPM_P1;HPM_P2
2023/12/01 00:04:10;;;;;;;16.77;15.07;;;2.00;99.90;;;2.65;100.00;96297.84;10361399;28;20222;-81
2023/12/01 00:09:14;;;;;;;17.33;15.13;;;2.00;99.90;;;2.66;100.00;96308.03;10360520;28;20234;-82
2023/12/01 00:14:18;;;;;;;18.40;15.27;;;2.00;99.90;;;2.73;100.00;96279.00;10359982;28;20327;-80
2023/12/01 00:19:21;;;;;;;19.13;15.87;;;2.00;99.90;;;2.54;100.00;96282.03;10361485;28;20284;-80
2023/12/01 00:24:25;;;;;;;16.43;14.70;;;1.80;99.90;;;2.57;100.00;96289.78;10369447;28;20229;-82
2023/12/01 00:29:29;;;;;;;16.97;15.13;;;1.90;99.90;;;2.61;100.00;96300.97;10369239;28;20249;-82
2023/12/01 00:34:33;;;;;;;18.13;15.33;;;1.90;99.90;;;2.65;100.00;96295.31;10369247;28;20287;-81
2023/12/01 00:39:36;;;;;;;16.37;14.67;;;2.00;99.90;;;2.68;100.00;96278.72;10370299;28;20233;-80
2023/12/01 00:44:41;;;;;;;18.30;16.13;;;2.00;99.90;;;2.59;100.00;96255.44;10366523;28;20233;-82
2023/12/01 00:49:44;;;;;;;17.37;15.67;;;2.00;99.90;;;2.60;100.00;96279.00;10367658;28;20234;-82
2023/12/01 00:54:47;;;;;;;17.60;15.70;;;2.00;99.90;;;2.64;100.00;96293.56;10367496;28;20221;-81
2023/12/01 00:59:52;;;;;;;18.87;16.03;;;2.00;99.90;;;2.65;100.00;96293.66;10368769;28;20336;-81
2023/12/01 01:04:55;;;;;;;18.00;16.10;;;2.00;99.90;;;2.64;100.00;96273.41;10369130;28;20782;-82
2023/12/01 01:09:59;;;;;;;18.57;16.63;;;2.00;99.90;;;2.68;100.00;96272.78;10369001;28;20954;-82
2023/12/01 01:15:05;;;;;;;19.10;16.73;;;2.00;99.90;;;2.64;100.00;96269.22;10366542;28;20230;-81
2023/12/01 01:20:10;;;;;;;18.10;15.37;;;2.00;99.90;;;2.62;100.00;96280.84;10370758;28;20518;-82
2023/12/01 01:25:14;;;;;;;20.70;17.23;;;2.00;99.90;;;2.66;100.00;96292.00;10377239;28;20301;-82
2023/12/01 01:30:18;;;;;;;20.37;17.57;;;2.10;99.90;;;2.69;100.00;96300.66;10368768;28;20225;-81
2023/12/01 01:35:22;;;;;;;17.63;15.80;;;2.10;99.90;;;2.68;100.00;96295.50;10372744;28;20221;-82
2023/12/01 01:40:25;;;;;;;18.20;16.23;;;2.00;99.90;;;2.69;100.00;96288.03;10371245;28;20250;-79
2023/12/01 01:45:29;;;;;;;17.93;16.03;;;2.00;99.90;;;2.57;100.00;96292.31;10368690;28;20216;-82
2023/12/01 01:50:33;;;;;;;18.57;15.90;;;2.00;99.90;;;2.54;100.00;96294.63;10370292;28;20321;-78
2023/12/01 01:55:36;;;;;;;17.03;14.97;;;2.00;99.90;;;2.47;100.00;96300.09;10370138;28;20305;-81
2023/12/01 02:00:41;;;;;;;17.97;16.07;;;1.90;99.90;;;2.43;100.00;96308.22;10368132;28;20232;-82
2023/12/01 02:05:47;;;;;;;18.63;16.63;;;1.90;99.90;;;2.41;100.00;96302.25;10368160;28;20236;-82
2023/12/01 02:10:51;;;;;;;19.63;17.53;;;1.90;99.90;;;2.39;100.00;96308.81;10370394;28;20650;-83
2023/12/01 02:15:56;;;;;;;19.83;17.40;;;1.90;99.90;;;2.39;100.00;96316.38;10373767;28;20668;-82
2023/12/01 02:20:59;;;;;;;18.87;16.77;;;1.80;99.90;;;2.31;100.00;96322.59;10375460;28;20305;-82
2023/12/01 02:26:09;;;;;;;17.73;15.83;;;1.80;99.90;;;2.21;100.00;96309.41;10374115;28;20225;-83
2023/12/01 02:31:13;;;;;;;20.83;16.30;;;1.70;99.90;;;2.12;100.00;96291.19;10371732;28;20225;-82
2023/12/01 02:36:17;;;;;;;19.97;17.17;;;1.60;99.90;;;2.03;100.00;96300.66;10367377;28;20245;-82
2023/12/01 02:41:22;;;;;;;21.30;16.97;;;1.60;99.90;;;2.01;100.00;96327.44;10368559;28;20215;-81
2023/12/01 02:46:25;;;;;;;17.30;15.43;;;1.60;99.90;;;2.04;100.00;96332.66;10367175;28;20223;-82
2023/12/01 02:51:28;;;;;;;24.30;19.23;;;1.60;99.90;;;1.99;100.00;96321.41;10365758;28;20223;-81
2023/12/01 02:56:33;;;;;;;21.17;17.93;;;1.50;99.90;;;1.95;100.00;96327.91;10369242;28;20242;-81
2023/12/01 03:01:36;;;;;;;22.43;19.00;;;1.50;99.90;;;1.92;100.00;96314.25;10367897;28;20238;-77
2023/12/01 03:06:39;;;;;;;20.97;17.87;;;1.50;99.90;;;1.87;100.00;96323.13;10366279;28;20232;-80
2023/12/01 03:11:46;;;;;;;21.00;18.50;;;1.40;99.90;;;1.77;100.00;96320.03;10366957;28;20243;-80
2023/12/01 03:16:50;;;;;;;22.60;18.60;;;1.30;99.90;;;1.73;100.00;96323.09;10367295;28;20214;-80
2023/12/01 03:21:53;;;;;;;19.73;17.27;;;1.30;99.90;;;1.66;100.00;96300.81;10365023;28;20718;-82
2023/12/01 03:26:58;;;;;;;20.90;17.47;;;1.30;99.90;;;1.62;100.00;96306.41;10365972;28;20258;-79
2023/12/01 03:32:04;;;;;;;20.60;17.73;;;1.20;99.90;;;1.60;100.00;96318.03;10365766;28;20310;-80
2023/12/01 03:37:08;;;;;;;23.77;19.53;;;1.20;99.90;;;1.54;100.00;96327.69;10363420;28;20234;-80
2023/12/01 03:42:12;;;;;;;23.77;17.90;;;1.20;99.90;;;1.51;100.00;96330.88;10367406;28;20218;-81
2023/12/01 03:47:16;;;;;;;24.73;20.17;;;1.10;99.90;;;1.54;100.00;96317.63;10366852;28;20230;-80
2023/12/01 03:52:19;;;;;;;24.93;19.40;;;1.20;99.90;;;1.48;100.00;96328.16;10365007;28;20221;-81
2023/12/01 03:57:24;;;;;;;22.33;18.10;;;1.10;99.90;;;1.47;100.00;96320.53;10363292;28;20297;-80
2023/12/01 04:02:30;;;;;;;23.13;19.60;;;1.10;99.90;;;1.49;100.00;96313.94;10363395;28;20214;-80
2023/12/01 04:07:33;;;;;;;25.83;19.43;;;1.10;99.90;;;1.50;100.00;96306.50;10363328;28;20281;-82
2023/12/01 04:12:44;;;;;;;24.53;19.63;;;1.10;99.90;;;1.46;100.00;96314.63;10362540;28;20225;-81
2023/12/01 04:17:50;;;;;;;24.20;19.50;;;1.10;99.90;;;1.44;100.00;96315.28;10362734;28;20232;-81
2023/12/01 04:22:55;;;;;;;28.10;20.53;;;1.00;99.90;;;1.46;100.00;96319.66;10362188;28;20770;-80
2023/12/01 04:28:00;;;;;;;26.70;21.10;;;1.10;99.90;;;1.45;100.00;96327.97;10361175;28;20280;-81
2023/12/01 04:33:03;;;;;;;26.37;21.37;;;1.10;99.90;;;1.42;100.00;96329.41;10361946;28;20230;-80
2023/12/01 04:38:08;;;;;;;25.50;19.67;;;1.00;99.90;;;1.38;100.00;96329.97;10362331;28;20774;-82
2023/12/01 04:43:13;;;;;;;27.27;20.50;;;1.00;99.90;;;1.35;100.00;96340.72;10365235;28;20273;-81
2023/12/01 04:48:16;;;;;;;25.27;19.80;;;1.00;99.90;;;1.37;100.00;96330.72;10361372;28;20223;-79
2023/12/01 04:53:20;;;;;;;26.87;20.70;;;1.00;99.90;;;1.34;100.00;96328.88;10362290;28;20233;-80
2023/12/01 04:58:24;;;;;;;28.97;21.77;;;1.00;99.90;;;1.28;100.00;96331.00;10359915;28;20226;-79
2023/12/01 05:03:28;;;;;;;27.67;20.90;;;0.90;99.90;;;1.26;100.00;96335.94;10362282;28;20765;-80
2023/12/01 05:08:31;;;;;;;25.63;19.20;;;0.90;99.90;;;1.23;100.00;96352.44;10373010;28;20239;-79
2023/12/01 05:13:36;;;;;;;24.83;19.33;;;0.90;99.90;;;1.20;100.00;96344.69;10370816;28;20226;-80
2023/12/01 05:18:39;;;;;;;25.57;18.97;;;0.80;99.90;;;1.20;100.00;96355.63;10366781;28;20214;-81
2023/12/01 05:23:42;;;;;;;22.43;17.87;;;0.80;99.90;;;1.17;100.00;96357.06;10368599;28;20276;-80
2023/12/01 05:28:47;;;;;;;24.93;18.27;;;0.80;99.90;;;1.13;100.00;96348.44;10369717;28;20931;-81
2023/12/01 05:33:50;;;;;;;21.47;17.73;;;0.80;99.90;;;1.18;100.00;96356.31;10371390;28;20305;-81
2023/12/01 05:39:12;;;;;;;19.03;16.57;;;0.80;99.90;;;1.20;100.00;96344.69;10367453;28;20726;-82
2023/12/01 05:44:17;;;;;;;20.63;17.03;;;0.90;99.90;;;1.20;100.00;96335.50;10368905;28;20229;-81
2023/12/01 05:49:21;;;;;;;26.37;20.20;;;0.80;99.90;;;1.16;100.00;96338.59;10369142;28;20234;-82
2023/12/01 05:54:24;;;;;;;33.27;24.30;;;0.80;99.90;;;1.22;100.00;96354.09;10369424;28;20292;-80
2023/12/01 05:59:29;;;;;;;24.00;20.40;;;0.90;99.90;;;1.29;100.00;96365.47;10359004;28;20337;-81
2023/12/01 06:04:32;;;;;;;23.67;19.30;;;1.00;99.90;;;1.31;100.00;96357.22;10367763;28;20236;-81
2023/12/01 06:09:36;;;;;;;28.77;22.53;;;0.90;99.90;;;1.33;100.00;96363.25;10369473;28;20235;-79
2023/12/01 06:14:40;;;;;;;26.60;21.47;;;1.00;99.90;;;1.35;100.00;96365.88;10363412;28;20253;-82
2023/12/01 06:19:43;;;;;;;23.40;19.27;;;0.90;99.90;;;1.35;100.00;96361.72;10373262;28;20241;-81
2023/12/01 06:24:47;;;;;;;27.23;20.50;;;0.90;99.90;;;1.30;100.00;96358.00;10370619;28;20233;-80
2023/12/01 06:29:51;;;;;;;27.33;20.00;;;0.90;99.90;;;1.24;100.00;96374.34;10369637;28;20273;-80
2023/12/01 06:34:55;;;;;;;89.93;38.10;;;0.90;99.90;;;1.25;100.00;96384.50;10366642;28;20230;-80
2023/12/01 06:39:58;;;;;;;43.13;24.63;;;0.90;99.90;;;1.24;100.00;96397.84;10366120;28;20249;-80
2023/12/01 06:45:04;;;;;;;30.77;21.73;;;0.80;99.90;;;1.25;100.00;96407.16;10366997;28;20236;-79
2023/12/01 06:50:09;;;;;;;46.87;29.50;;;0.90;99.90;;;1.26;100.00;96406.41;10370781;28;20968;-80
2023/12/01 06:55:13;;;;;;;30.50;21.93;;;0.90;99.90;;;1.26;100.00;96403.88;10365062;28;20236;-79
2023/12/01 07:00:29;;;;;;;30.10;21.50;;;0.90;99.90;;;1.22;100.00;96406.06;10368848;28;20232;-78
2023/12/01 07:05:37;;;;;;;32.83;24.37;;;0.80;99.90;;;1.18;100.00;96425.13;10362344;28;20232;-78
2023/12/01 07:10:41;;;;;;;32.93;25.87;;;0.80;99.90;;;1.16;100.00;96439.22;10361481;28;20603;-78
2023/12/01 07:15:47;;;;;;;28.27;22.93;;;0.80;99.90;;;1.20;100.00;96440.31;10362150;28;20265;-80
2023/12/01 07:20:50;;;;;;;29.70;24.60;;;0.80;99.90;;;1.19;100.00;96436.91;10363118;28;20311;-85
2023/12/01 07:25:53;;;;;;;27.13;20.67;;;0.80;99.90;;;1.16;100.00;96436.72;10378655;28;20320;-85
2023/12/01 07:30:59;;;;;;;23.57;19.57;;;0.80;99.90;;;1.18;100.00;96441.88;10371733;28;20684;-84
2023/12/01 07:36:04;;;;;;;28.00;21.73;;;0.80;99.90;;;1.22;100.00;96444.69;10372849;28;20603;-86
2023/12/01 07:41:14;;;;;;;35.27;25.37;;;0.80;99.90;;;1.21;100.00;96414.41;10370276;28;20252;-84
2023/12/01 07:46:20;;;;;;;31.37;24.07;;;0.80;99.90;;;1.24;100.00;96433.09;10368156;28;20261;-85
2023/12/01 07:51:24;;;;;;;26.10;21.67;;;0.80;99.90;;;1.24;100.00;96420.50;10367283;28;20243;-85
2023/12/01 07:56:27;;;;;;;25.37;21.67;;;0.80;99.90;;;1.25;100.00;96429.78;10368283;28;20235;-85
2023/12/01 08:01:31;;;;;;;27.33;23.70;;;0.90;99.90;;;1.29;100.00;96441.84;10375039;28;20286;-83
2023/12/01 08:06:35;;;;;;;32.77;26.20;;;0.90;99.90;;;1.34;100.00;96460.66;10371422;28;20225;-85
2023/12/01 08:11:38;;;;;;;37.47;27.93;;;0.90;99.90;;;1.34;100.00;96465.69;10370948;28;20253;-84
2023/12/01 08:16:43;;;;;;;41.60;30.00;;;0.90;99.90;;;1.32;100.00;96469.72;10372623;28;20335;-85
2023/12/01 08:21:46;;;;;;;39.80;30.83;;;0.90;99.90;;;1.35;100.00;96459.88;10366743;28;20321;-83
2023/12/01 08:26:49;;;;;;;42.87;31.90;;;0.90;99.90;;;1.41;100.00;96461.06;10367905;28;20238;-85
2023/12/01 08:31:55;;;;;;;44.37;31.17;;;0.90;99.90;;;1.43;100.00;96454.47;10369688;28;20235;-83
2023/12/01 08:36:58;;;;;;;39.13;28.97;;;1.00;99.90;;;1.46;100.00;96469.78;10371001;28;20249;-83
2023/12/01 08:42:02;;;;;;;38.63;28.23;;;1.00;99.90;;;1.40;100.00;96490.38;10377245;28;20236;-83
2023/12/01 08:47:08;;;;;;;37.23;28.13;;;1.00;99.90;;;1.41;100.00;96471.13;10373434;28;20239;-80
2023/12/01 08:52:11;;;;;;;35.53;27.40;;;1.00;99.90;;;1.44;100.00;96471.34;10375120;28;20268;-85
2023/12/01 08:57:15;;;;;;;35.90;27.33;;;1.00;99.90;;;1.39;100.00;96483.59;10378589;28;20291;-80
2023/12/01 09:02:20;;;;;;;33.43;25.93;;;1.00;99.90;;;1.40;100.00;96480.31;10374675;28;20232;-81
2023/12/01 09:07:23;;;;;;;29.63;23.83;;;1.00;99.90;;;1.47;100.00;96481.63;10375509;28;20222;-84
2023/12/01 09:12:33;;;;;;;34.17;26.10;;;1.10;99.90;;;1.53;100.00;96471.97;10378715;28;20749;-85
2023/12/01 09:17:38;;;;;;;33.93;27.00;;;1.10;99.90;;;1.60;100.00;96480.81;10386772;28;20230;-83
2023/12/01 09:22:43;;;;;;;32.93;28.80;;;1.10;99.90;;;1.58;100.00;96470.66;10377969;28;20743;-84
2023/12/01 09:27:47;;;;;;;54.73;33.13;;;1.10;99.90;;;1.58;100.00;96475.69;10377855;28;20229;-84
2023/12/01 09:32:51;;;;;;;75.50;40.47;;;1.10;99.90;;;1.62;100.00;96447.41;10378485;28;20230;-82
2023/12/01 09:37:55;;;;;;;129.00;59.10;;;1.20;99.90;;;1.72;100.00;96452.31;10377851;28;20293;-80
2023/12/01 09:42:59;;;;;;;66.57;38.37;;;1.30;99.90;;;1.85;100.00;96479.19;10371565;28;20786;-82
2023/12/01 09:48:04;;;;;;;58.10;35.30;;;1.50;99.90;;;1.91;100.00;96486.28;10377038;28;20257;-82
2023/12/01 09:53:08;;;;;;;51.33;34.50;;;1.50;99.90;;;1.94;100.00;96502.47;10372857;28;20231;-81
2023/12/01 09:58:12;;;;;;;33.97;25.27;;;1.50;99.90;;;1.90;100.00;96503.06;10373970;28;20611;-82
2023/12/01 10:03:16;;;;;;;31.37;24.33;;;1.40;99.90;;;1.87;100.00;96479.31;10373155;28;20230;-83
2023/12/01 10:08:20;;;;;;;29.93;23.90;;;1.30;99.90;;;1.83;100.00;96493.31;10373212;28;20229;-80
2023/12/01 10:13:23;;;;;;;30.63;25.00;;;1.40;99.90;;;1.76;100.00;96481.97;10371724;28;20226;-80
2023/12/01 10:18:28;;;;;;;25.20;22.33;;;1.30;99.90;;;1.86;100.00;96472.50;10374100;28;20241;-80
2023/12/01 10:23:33;;;;;;;29.17;23.10;;;1.40;99.90;;;1.83;100.00;96472.31;10373602;28;20230;-81
2023/12/01 10:28:41;;;;;;;28.73;23.13;;;1.40;99.90;;;1.91;100.00;96443.47;10372158;28;20222;-84
2023/12/01 10:33:48;;;;;;;35.97;30.23;;;1.50;99.90;;;2.03;100.00;96432.56;10372139;28;20223;-81
2023/12/01 10:38:53;;;;;;;29.63;25.53;;;1.50;99.90;;;1.96;100.00;96434.56;10367997;28;20826;-81
2023/12/01 10:43:57;;;;;;;31.93;25.63;;;1.50;99.90;;;1.98;100.00;96449.03;10367223;28;20290;-80
2023/12/01 10:49:02;;;;;;;29.53;23.57;;;1.60;99.90;;;1.93;100.00;96425.16;10371721;28;20261;-79
2023/12/01 10:54:07;;;;;;;29.37;24.57;;;1.50;99.90;;;1.95;100.00;96427.81;10371722;28;20306;-79
2023/12/01 10:59:12;;;;;;;35.27;28.37;;;1.50;99.90;;;2.02;100.00;96420.72;10372720;28;20246;-84
2023/12/01 11:04:25;;;;;;;33.17;29.10;;;1.50;99.90;;;2.08;100.00;96425.31;10371049;28;20249;-78
2023/12/01 11:09:37;;;;;;;32.23;27.43;;;1.60;99.90;;;2.08;100.00;96405.16;10367007;28;20226;-81
2023/12/01 11:14:41;;;;;;;32.60;26.90;;;1.60;99.90;;;2.12;100.00;96411.25;10365481;28;20313;-82
2023/12/01 11:19:46;;;;;;;38.60;30.40;;;1.60;99.90;;;2.11;100.00;96414.56;10363387;28;20222;-81
2023/12/01 11:24:49;;;;;;;40.00;31.60;;;1.60;99.90;;;2.17;100.00;96410.78;10366464;28;20323;-83
2023/12/01 11:30:05;;;;;;;33.70;26.47;;;1.70;99.90;;;2.25;100.00;96412.16;10368398;28;20242;-84
2023/12/01 11:35:12;;;;;;;30.13;24.97;;;1.70;99.90;;;2.29;100.00;96402.25;10370688;28;20242;-81
2023/12/01 11:40:21;;;;;;;27.37;24.03;;;1.70;99.90;;;2.26;100.00;96400.41;10337872;28;20228;-83
2023/12/01 11:45:37;;;;;;;27.00;22.40;;;1.70;99.90;;;2.25;100.00;96396.16;10342345;28;20237;-84
2023/12/01 11:50:42;;;;;;;21.60;19.30;;;1.70;99.90;;;2.22;100.00;96401.88;10337725;28;20222;-84
2023/12/01 11:55:49;;;;;;;24.53;20.53;;;1.70;99.90;;;2.24;100.00;96414.59;10334592;28;20222;-83
2023/12/01 12:00:53;;;;;;;27.93;23.27;;;1.70;99.90;;;2.18;100.00;96410.03;10335523;28;20231;-82
2023/12/01 12:05:57;;;;;;;28.83;24.20;;;1.60;99.90;;;2.30;100.00;96411.59;10334494;28;20329;-81
2023/12/01 12:11:01;;;;;;;35.13;27.87;;;1.60;99.90;;;2.33;100.00;96406.75;10337489;28;20318;-83
2023/12/01 12:16:05;;;;;;;32.20;26.73;;;1.70;99.90;;;2.39;100.00;96410.53;10336282;28;20256;-84
2023/12/01 12:21:09;;;;;;;38.67;27.77;;;1.70;99.90;;;2.34;100.00;96419.44;10330686;28;20223;-81
2023/12/01 12:26:18;;;;;;;38.17;29.67;;;1.70;99.90;;;2.27;100.00;96427.38;10331191;28;20282;-80
2023/12/01 12:31:23;;;;;;;42.97;29.93;;;1.70;99.90;;;2.22;100.00;96449.75;10333765;28;20681;-82
2023/12/01 12:36:30;;;;;;;34.10;29.57;;;1.70;99.90;;;2.25;100.00;96460.03;10338208;28;20234;-80
2023/12/01 12:41:36;;;;;;;35.83;31.50;;;1.70;99.90;;;2.22;100.00;96444.72;10343235;28;20224;-80
2023/12/01 12:46:39;;;;;;;38.53;30.37;;;1.70;99.90;;;2.26;100.00;96450.81;10335586;28;20246;-82
2023/12/01 12:51:44;;;;;;;36.63;30.93;;;1.70;99.90;;;2.30;100.00;96457.84;10334387;28;20230;-81
2023/12/01 12:56:48;;;;;;;42.50;33.07;;;1.60;99.90;;;2.23;100.00;96441.44;10332685;28;20281;-81
2023/12/01 13:01:51;;;;;;;43.13;34.40;;;1.60;99.90;;;2.20;100.00;96431.16;10337727;28;20707;-82
2023/12/01 13:06:56;;;;;;;42.13;32.63;;;1.60;99.90;;;2.12;100.00;96432.31;10334786;28;20777;-80
2023/12/01 13:12:00;;;;;;;38.77;31.50;;;1.60;99.90;;;2.07;100.00;96415.13;10332216;28;20313;-80
2023/12/01 13:17:03;;;;;;;39.10;31.73;;;1.60;99.90;;;2.03;100.00;96412.41;10336673;28;20231;-82
2023/12/01 13:22:08;;;;;;;39.93;32.00;;;1.50;99.90;;;1.94;100.00;96401.72;10339248;28;20674;-82
2023/12/01 13:27:12;;;;;;;40.33;31.73;;;1.50;99.90;;;1.98;100.00;96416.28;10341045;28;20823;-82
2023/12/01 13:32:15;;;;;;;42.43;33.63;;;1.50;99.90;;;1.99;100.00;96420.53;10348685;28;20323;-78
2023/12/01 13:37:19;;;;;;;37.43;30.93;;;1.50;99.90;;;1.88;100.00;96418.06;10339140;28;20233;-79
2023/12/01 13:42:23;;;;;;;37.50;31.30;;;1.40;99.90;;;1.75;100.00;96424.81;10339139;28;20671;-78
2023/12/01 13:47:26;;;;;;;37.90;31.33;;;1.40;99.90;;;1.66;100.00;96444.34;10341337;28;20662;-76
2023/12/01 13:52:31;;;;;;;41.97;32.77;;;1.30;99.90;;;1.62;100.00;96432.31;10336937;28;20704;-79
2023/12/01 13:57:36;;;;;;;39.90;32.47;;;1.20;99.90;;;1.61;100.00;96453.22;10338234;28;20231;-80
2023/12/01 14:02:39;;;;;;;39.33;30.77;;;1.20;99.90;;;1.60;100.00;96450.59;10348371;28;20229;-80
2023/12/01 14:07:44;;;;;;;38.73;31.43;;;1.20;99.90;;;1.61;100.00;96444.81;10342516;28;20241;-82
2023/12/01 14:12:47;;;;;;;34.40;29.43;;;1.20;99.90;;;1.55;100.00;96443.63;10338428;28;20222;-83
2023/12/01 14:17:51;;;;;;;37.70;30.97;;;1.20;99.90;;;1.54;100.00;96440.97;10356039;28;20231;-83
2023/12/01 14:22:55;;;;;;;35.90;29.10;;;1.20;99.90;;;1.49;100.00;96450.75;10348701;28;20301;-80
2023/12/01 14:27:58;;;;;;;40.03;31.80;;;1.10;99.90;;;1.51;100.00;96463.44;10345497;28;20253;-82
2023/12/01 14:33:01;;;;;;;38.87;30.80;;;1.10;99.90;;;1.55;100.00;96470.44;10345504;28;20261;-83
2023/12/01 14:38:06;;;;;;;39.83;32.50;;;1.00;99.90;;;1.45;100.00;96465.53;10342004;28;20243;-84
2023/12/01 14:43:09;;;;;;;45.40;32.80;;;1.00;99.90;;;1.41;100.00;96456.03;10345690;28;20357;-83
2023/12/01 14:48:13;;;;;;;41.17;33.03;;;1.00;99.90;;;1.33;100.00;96452.97;10339794;28;20393;-81
2023/12/01 14:53:18;;;;;;;42.17;34.43;;;1.00;99.90;;;1.33;100.00;96470.59;10345023;28;20280;-78
2023/12/01 14:58:21;;;;;;;42.00;35.13;;;1.00;99.90;;;1.33;100.00;96468.09;10344675;28;20320;-83
2023/12/01 15:03:25;;;;;;;41.07;33.70;;;0.90;99.90;;;1.34;100.00;96465.69;10343077;28;20234;-84
2023/12/01 15:08:30;;;;;;;42.43;34.20;;;1.00;99.90;;;1.36;100.00;96468.28;10333909;28;20263;-81
2023/12/01 15:13:33;;;;;;;45.53;34.77;;;1.00;99.90;;;1.38;100.00;96476.84;10346616;28;20317;-83
2023/12/01 15:18:36;;;;;;;42.13;34.40;;;1.00;99.90;;;1.34;100.00;96462.28;10350644;28;20221;-79
2023/12/01 15:23:41;;;;;;;37.10;32.53;;;0.90;99.90;;;1.33;100.00;96468.09;10339356;28;20235;-80
2023/12/01 15:28:44;;;;;;;46.77;37.37;;;0.90;99.90;;;1.29;100.00;96467.00;10339650;28;20317;-81
2023/12/01 15:33:48;;;;;;;49.63;38.23;;;0.90;99.90;;;1.34;100.00;96474.84;10325497;28;20235;-77
2023/12/01 15:38:52;;;;;;;54.23;41.23;;;0.90;99.90;;;1.33;100.00;96473.13;10330117;28;20230;-77
2023/12/01 15:43:56;;;;;;;53.97;41.23;;;0.90;99.90;;;1.33;100.00;96463.03;10342026;28;20235;-77
2023/12/01 15:48:59;;;;;;;59.03;41.93;;;0.90;99.90;;;1.31;100.00;96467.97;10338038;28;20819;-78
2023/12/01 15:54:03;;;;;;;53.17;40.67;;;0.90;99.90;;;1.34;100.00;96475.75;10334092;28;20231;-77
2023/12/01 15:59:07;;;;;;;49.83;41.07;;;1.00;99.90;;;1.36;100.00;96458.22;10353239;28;20273;-78
2023/12/01 16:04:10;;;;;;;50.73;40.27;;;0.90;99.90;;;1.37;100.00;96459.09;10339488;28;20234;-80
2023/12/01 16:09:15;;;;;;;49.93;38.83;;;1.00;99.90;;;1.34;100.00;96460.66;10337259;28;20737;-78
2023/12/01 16:14:18;;;;;;;55.27;41.03;;;0.90;99.90;;;1.32;100.00;96469.72;10324967;28;20235;-77
2023/12/01 16:19:21;;;;;;;54.10;42.87;;;0.90;99.90;;;1.34;100.00;96468.19;10323445;28;20262;-77
2023/12/01 16:24:26;;;;;;;50.37;41.60;;;0.90;99.90;;;1.34;100.00;96465.69;10325023;28;20232;-79
2023/12/01 16:29:35;;;;;;;50.03;40.33;;;0.90;99.90;;;1.30;100.00;96473.78;10346178;28;20224;-79
2023/12/01 16:34:38;;;;;;;45.47;37.63;;;0.90;99.90;;;1.35;100.00;96464.91;10362464;28;20230;-80
2023/12/01 16:39:43;;;;;;;41.60;35.37;;;0.90;99.90;;;1.29;100.00;96467.00;10345060;28;20891;-79
2023/12/01 16:44:47;;;;;;;41.10;36.43;;;0.90;99.90;;;1.21;100.00;96475.66;10324126;28;20727;-77
2023/12/01 16:49:52;;;;;;;36.60;32.30;;;0.80;99.90;;;1.23;100.00;96483.28;10331466;28;20230;-79
2023/12/01 16:54:57;;;;;;;44.77;37.57;;;0.90;99.90;;;1.25;100.00;96469.19;10335043;28;20253;-78
2023/12/01 17:00:00;;;;;;;43.33;36.00;;;0.90;99.90;;;1.28;100.00;96469.41;10355427;28;20308;-79
2023/12/01 17:05:04;;;;;;;51.97;39.73;;;0.90;99.90;;;1.27;100.00;96465.16;10377694;28;20233;-77
2023/12/01 17:10:10;;;;;;;52.70;41.90;;;0.90;99.90;;;1.29;100.00;96467.00;10371973;28;20467;-80
2023/12/01 17:15:13;;;;;;;53.00;39.37;;;0.80;99.90;;;1.28;100.00;96454.31;10374647;28;20287;-79
2023/12/01 17:20:17;;;;;;;57.00;41.53;;;0.80;99.90;;;1.24;100.00;96467.44;10380320;28;20226;-79
2023/12/01 17:25:21;;;;;;;60.37;43.37;;;0.80;99.90;;;1.25;100.00;96481.78;10369347;28;20713;-77
2023/12/01 17:30:24;;;;;;;60.83;44.33;;;0.80;99.90;;;1.23;100.00;96481.69;10337610;28;20594;-78
2023/12/01 17:35:28;;;;;;;48.43;38.63;;;0.80;99.90;;;1.25;100.00;96486.81;10344080;28;20238;-79
2023/12/01 17:40:32;;;;;;;58.63;44.43;;;0.80;99.90;;;1.29;100.00;96487.13;10344282;28;20230;-77
2023/12/01 17:45:35;;;;;;;96.00;58.63;;;0.90;99.90;;;1.33;100.00;96506.69;10337700;28;20317;-78
2023/12/01 17:50:39;;;;;;;75.33;50.03;;;0.90;99.90;;;1.42;100.00;96503.09;10332336;28;20234;-79
2023/12/01 17:55:44;;;;;;;71.83;47.73;;;1.00;99.90;;;1.43;100.00;96494.75;10337781;28;20259;-77
2023/12/01 18:00:47;;;;;;;73.77;49.43;;;0.90;99.90;;;1.39;100.00;96491.16;10330239;28;20300;-79
2023/12/01 18:05:50;;;;;;;71.50;49.10;;;0.90;99.90;;;1.35;100.00;96482.53;10341810;28;20292;-77
2023/12/01 18:10:56;;;;;;;69.30;47.20;;;0.90;99.90;;;1.34;100.00;96487.44;10330525;28;20216;-79
2023/12/01 18:15:59;;;;;;;59.87;45.63;;;0.90;99.90;;;1.36;100.00;96503.53;10337856;28;20238;-79
2023/12/01 18:21:03;;;;;;;59.53;43.80;;;0.90;99.90;;;1.40;100.00;96499.56;10333016;28;20257;-79
2023/12/01 18:26:08;;;;;;;58.20;43.20;;;0.90;99.90;;;1.30;100.00;96493.91;10369101;28;20234;-77
2023/12/01 18:31:14;;;;;;;64.33;47.87;;;0.90;99.90;;;1.25;100.00;96487.66;10365742;28;20229;-79
2023/12/01 18:36:17;;;;;;;76.70;52.17;;;0.90;99.90;;;1.22;100.00;96484.94;10368897;28;20556;-80
2023/12/01 18:41:22;;;;;;;57.90;44.80;;;0.80;99.90;;;1.28;100.00;96470.28;10375353;28;20254;-78
2023/12/01 18:46:25;;;;;;;51.37;39.23;;;0.90;99.90;;;1.26;100.00;96481.00;10370172;28;20254;-79
2023/12/01 18:51:29;;;;;;;66.53;47.10;;;0.80;99.90;;;1.26;100.00;96481.00;10378509;28;20225;-79
2023/12/01 18:56:34;;;;;;;52.43;41.57;;;0.80;99.90;;;1.28;100.00;96487.88;10364796;28;20249;-80
2023/12/01 19:01:39;;;;;;;55.13;41.13;;;0.80;99.90;;;1.24;100.00;96493.47;10379360;28;20218;-80
2023/12/01 19:06:42;;;;;;;57.67;42.57;;;0.80;99.90;;;1.34;100.00;96500.91;10376387;28;20218;-82
2023/12/01 19:11:47;;;;;;;55.43;39.63;;;0.90;99.90;;;1.40;100.00;96515.53;10382579;28;20703;-82
2023/12/01 19:16:50;;;;;;;58.33;41.43;;;0.90;99.90;;;1.41;100.00;96516.44;10338936;28;20715;-82
2023/12/01 19:21:54;;;;;;;56.03;39.17;;;0.90;99.90;;;1.39;100.00;96506.25;10339917;28;20250;-81
2023/12/01 19:26:58;;;;;;;59.60;43.53;;;0.90;99.90;;;1.37;100.00;96501.88;10336147;28;20227;-81
2023/12/01 19:32:02;;;;;;;54.60;40.77;;;0.90;99.90;;;1.34;100.00;96493.38;10343468;28;20214;-80
2023/12/01 19:37:06;;;;;;;58.80;41.47;;;0.90;99.90;;;1.23;100.00;96491.75;10342297;28;20539;-82
2023/12/01 19:42:10;;;;;;;50.93;39.53;;;0.80;99.90;;;1.19;100.00;96479.69;10324744;28;20313;-80
2023/12/01 19:47:14;;;;;;;51.47;38.60;;;0.80;99.90;;;1.18;100.00;96490.53;10342750;28;20217;-81
2023/12/01 19:52:17;;;;;;;57.73;40.50;;;0.80;99.90;;;1.21;100.00;96498.31;10364249;28;20237;-81
2023/12/01 19:57:22;;;;;;;61.80;42.83;;;0.80;99.90;;;1.13;100.00;96489.34;10329740;28;20267;-81
2023/12/01 20:02:26;;;;;;;52.90;38.43;;;0.70;99.90;;;1.12;100.00;96497.66;10345669;28;20244;-80
2023/12/01 20:07:32;;;;;;;55.27;40.47;;;0.70;99.90;;;1.15;100.00;96507.94;10370767;28;20237;-79
2023/12/01 20:12:37;;;;;;;70.17;46.43;;;0.80;99.90;;;1.20;100.00;96511.63;10347086;28;20677;-79
2023/12/01 20:17:40;;;;;;;55.43;40.77;;;0.80;99.90;;;1.21;100.00;96510.00;10328929;28;20272;-78
2023/12/01 20:22:43;;;;;;;55.10;40.57;;;0.80;99.90;;;1.20;100.00;96506.59;10329385;28;20218;-80
2023/12/01 20:27:48;;;;;;;61.43;43.10;;;0.80;99.90;;;1.20;100.00;96496.53;10328843;28;20234;-81
2023/12/01 20:32:52;;;;;;;52.83;37.37;;;0.80;99.90;;;1.16;100.00;96499.63;10328464;28;20257;-80
2023/12/01 20:37:55;;;;;;;62.27;45.37;;;0.80;99.90;;;1.18;100.00;96503.13;10330874;28;20253;-79
2023/12/01 20:43:00;;;;;;;59.33;41.33;;;0.80;99.90;;;1.19;100.00;96504.00;10334420;28;20521;-79
2023/12/01 20:48:04;;;;;;;59.20;41.03;;;0.80;99.90;;;1.20;100.00;96515.78;10334555;28;20360;-79
2023/12/01 20:53:09;;;;;;;55.67;40.13;;;0.80;99.90;;;1.16;100.00;96509.69;10336798;28;20258;-80